createdAt,value
2023-04-07T00:00:01.105Z,6.13
2023-04-07T00:03:53.269Z,6.08
2023-04-07T00:08:01.652Z,5.66
2023-04-07T00:12:02.743Z,5.23
2023-04-07T00:16:03.823Z,4.88
2023-04-07T00:19:56.400Z,4.78
2023-04-07T00:24:04.655Z,6.13
2023-04-07T00:28:12.752Z,6.15
2023-04-07T00:32:06.259Z,5.68
2023-04-07T00:36:04.162Z,5.28
2023-04-07T00:40:12.312Z,4.89
2023-04-07T00:44:20.404Z,4.85
2023-04-07T00:48:28.563Z,6.11
2023-04-07T00:52:28.709Z,6.02
2023-04-07T00:56:36.881Z,5.58
2023-04-07T01:00:45.042Z,5.12
2023-04-07T01:04:59.671Z,4.74
2023-04-07T01:09:06.669Z,4.79
2023-04-07T01:13:30.201Z,6.09
2023-04-07T01:17:41.058Z,6.00
2023-04-07T01:21:50.272Z,5.53
2023-04-07T01:26:06.563Z,5.10
2023-04-07T01:30:16.513Z,5.00
2023-04-07T01:34:24.622Z,6.17
2023-04-07T01:38:32.853Z,6.04
2023-04-07T01:42:33.608Z,5.58
2023-04-07T01:46:42.757Z,5.15
2023-04-07T01:50:51.416Z,4.80
2023-04-07T01:54:49.768Z,4.80
2023-04-07T01:58:58.078Z,6.10
2023-04-07T02:03:06.309Z,6.06
2023-04-07T02:07:14.416Z,5.58
2023-04-07T02:11:06.364Z,5.14
2023-04-07T02:14:57.303Z,4.81
2023-04-07T02:19:05.486Z,4.78
2023-04-07T02:23:13.607Z,6.11
2023-04-07T02:27:25.468Z,6.07
2023-04-07T02:31:13.082Z,5.60
2023-04-07T02:35:21.897Z,5.18
2023-04-07T02:39:23.409Z,4.90
2023-04-07T02:43:24.446Z,4.89
2023-04-07T02:47:32.531Z,6.20
2023-04-07T02:51:41.632Z,6.14
2023-04-07T02:55:39.825Z,5.65
2023-04-07T02:59:47.954Z,5.17
2023-04-07T03:03:38.858Z,4.77
2023-04-07T03:07:37.082Z,4.60
2023-04-07T03:11:45.170Z,5.95
2023-04-07T03:15:46.824Z,5.97
2023-04-07T03:19:54.987Z,5.51
2023-04-07T03:23:43.397Z,5.07
2023-04-07T03:27:51.599Z,4.68
2023-04-07T03:31:40.055Z,4.61
2023-04-07T03:34:36.806Z,5.91
2023-04-07T03:38:28.361Z,6.10
2023-04-07T03:42:36.577Z,5.68
2023-04-07T03:45:47.597Z,5.24
2023-04-07T03:49:55.766Z,4.87
2023-04-07T03:53:06.645Z,4.70
2023-04-07T03:57:03.349Z,5.77
2023-04-07T04:00:08.491Z,5.95
2023-04-07T04:03:45.199Z,5.68
2023-04-07T04:07:36.282Z,5.21
2023-04-07T04:11:44.493Z,4.80
2023-04-07T04:15:37.211Z,4.67
2023-04-07T04:18:45.434Z,5.90
2023-04-07T04:22:43.400Z,6.07
2023-04-07T04:26:31.282Z,5.71
2023-04-07T04:30:21.532Z,5.33
2023-04-07T04:34:22.329Z,4.96
2023-04-07T04:38:31.536Z,4.89
2023-04-07T04:42:09.500Z,6.18
2023-04-07T04:45:54.160Z,6.26
2023-04-07T04:49:36.328Z,5.86
2023-04-07T04:52:30.133Z,5.50
2023-04-07T04:55:52.304Z,5.15
2023-04-07T04:59:00.977Z,4.94
2023-04-07T05:02:16.622Z,5.99
2023-04-07T05:05:19.549Z,6.47
2023-04-07T05:07:52.147Z,6.36
2023-04-07T05:10:41.473Z,6.08
2023-04-07T05:13:40.201Z,5.70
2023-04-07T05:16:27.971Z,5.42
2023-04-07T05:19:41.787Z,5.16
2023-04-07T05:22:37.660Z,5.90
2023-04-07T05:25:15.359Z,6.21
2023-04-07T05:27:46.723Z,6.06
2023-04-07T05:30:31.584Z,5.71
2023-04-07T05:33:07.890Z,5.40
2023-04-07T05:35:56.900Z,5.16
2023-04-07T05:38:39.676Z,5.76
2023-04-07T05:42:08.178Z,6.42
2023-04-07T05:44:48.217Z,6.35
2023-04-07T05:47:20.835Z,6.09
2023-04-07T05:50:33.534Z,5.85
2023-04-07T05:53:32.895Z,5.52
2023-04-07T05:56:10.317Z,5.30
2023-04-07T05:59:16.815Z,5.91
2023-04-07T06:01:48.935Z,6.32
2023-04-07T06:04:21.342Z,6.14
2023-04-07T06:07:07.196Z,5.72
2023-04-07T06:09:37.323Z,5.22
2023-04-07T06:12:24.882Z,4.82
2023-04-07T06:15:00.399Z,5.32
2023-04-07T06:17:31.326Z,5.62
2023-04-07T06:20:04.745Z,5.19
2023-04-07T06:23:01.833Z,4.94
2023-04-07T06:25:29.302Z,4.70
2023-04-07T06:27:56.625Z,4.53
2023-04-07T06:30:37.560Z,5.00
2023-04-07T06:33:28.939Z,5.62
2023-04-07T06:36:20.434Z,5.61
2023-04-07T06:39:07.730Z,5.40
2023-04-07T06:42:22.802Z,5.15
2023-04-07T06:45:00.582Z,4.88
2023-04-07T06:47:56.752Z,5.57
2023-04-07T06:50:42.774Z,5.97
2023-04-07T06:53:30.313Z,5.77
2023-04-07T06:56:07.929Z,5.47
2023-04-07T06:58:39.289Z,5.13
2023-04-07T07:01:19.222Z,4.69
2023-04-07T07:03:47.627Z,5.06
2023-04-07T07:06:26.215Z,5.10
2023-04-07T07:08:53.897Z,5.06
2023-04-07T07:11:25.871Z,4.98
2023-04-07T07:13:56.095Z,4.65
2023-04-07T07:16:28.962Z,4.41
2023-04-07T07:19:08.395Z,4.97
2023-04-07T07:21:51.256Z,5.32
2023-04-07T07:24:34.111Z,5.36
2023-04-07T07:27:06.829Z,5.14
2023-04-07T07:29:36.952Z,5.05
2023-04-07T07:32:04.712Z,4.84
2023-04-07T07:34:48.548Z,5.40
2023-04-07T07:37:28.256Z,5.96
2023-04-07T07:40:05.756Z,5.71
2023-04-07T07:42:36.587Z,5.36
2023-04-07T07:45:07.280Z,4.90
2023-04-07T07:47:43.815Z,4.86
2023-04-07T07:50:11.291Z,4.82
2023-04-07T07:52:38.533Z,5.39
2023-04-07T07:55:09.253Z,5.83
2023-04-07T07:57:36.861Z,6.02
2023-04-07T08:00:15.729Z,5.78
2023-04-07T08:03:02.481Z,5.36
2023-04-07T08:05:30.616Z,5.20
2023-04-07T08:07:58.149Z,5.05
2023-04-07T08:10:41.914Z,5.40
2023-04-07T08:13:17.605Z,6.03
2023-04-07T08:15:49.462Z,5.82
2023-04-07T08:18:19.721Z,5.51
2023-04-07T08:20:54.833Z,5.11
2023-04-07T08:23:36.577Z,5.12
2023-04-07T08:26:46.168Z,4.86
2023-04-07T08:29:22.619Z,5.57
2023-04-07T08:32:03.424Z,5.95
2023-04-07T08:34:30.661Z,5.78
2023-04-07T08:37:18.263Z,5.46
2023-04-07T08:39:54.325Z,4.94
2023-04-07T08:42:50.702Z,4.58
2023-04-07T08:45:19.091Z,4.91
2023-04-07T08:47:47.771Z,5.06
2023-04-07T08:50:17.000Z,5.16
2023-04-07T08:52:54.921Z,4.81
2023-04-07T08:55:26.471Z,4.58
2023-04-07T08:58:14.554Z,4.45
2023-04-07T09:01:06.035Z,5.07
2023-04-07T09:04:16.882Z,5.37
2023-04-07T09:06:56.364Z,5.34
2023-04-07T09:09:48.024Z,5.11
2023-04-07T09:12:18.550Z,4.76
2023-04-07T09:14:49.363Z,4.85
2023-04-07T09:17:56.024Z,5.61
2023-04-07T09:20:23.597Z,6.05
2023-04-07T09:23:03.867Z,5.87
2023-04-07T09:26:05.847Z,5.28
2023-04-07T09:28:45.725Z,5.12
2023-04-07T09:31:55.398Z,4.97
2023-04-07T09:34:55.015Z,5.62
2023-04-07T09:37:31.158Z,5.97
2023-04-07T09:40:26.088Z,5.99
2023-04-07T09:42:53.492Z,5.77
2023-04-07T09:45:35.228Z,5.43
2023-04-07T09:48:34.992Z,5.18
2023-04-07T09:51:23.694Z,5.75
2023-04-07T09:53:51.626Z,6.08
2023-04-07T09:56:39.153Z,5.79
2023-04-07T09:59:22.983Z,5.65
2023-04-07T10:02:12.782Z,5.47
2023-04-07T10:04:43.874Z,5.08
2023-04-07T10:07:11.180Z,5.19
2023-04-07T10:09:38.333Z,5.72
2023-04-07T10:12:13.959Z,6.01
2023-04-07T10:14:47.098Z,5.87
2023-04-07T10:17:19.426Z,5.71
2023-04-07T10:20:07.430Z,5.61
2023-04-07T10:22:38.142Z,5.54
2023-04-07T10:25:25.828Z,6.23
2023-04-07T10:27:59.187Z,6.83
2023-04-07T10:30:31.613Z,6.76
2023-04-07T10:33:54.175Z,6.37
2023-04-07T10:36:24.216Z,6.29
2023-04-07T10:39:09.555Z,6.11
2023-04-07T10:42:00.010Z,5.82
2023-04-07T10:44:39.825Z,6.44
2023-04-07T10:47:07.485Z,6.93
2023-04-07T10:50:12.320Z,6.66
2023-04-07T10:52:46.248Z,6.24
2023-04-07T10:55:42.052Z,5.95
2023-04-07T10:58:35.046Z,5.64
2023-04-07T11:01:12.021Z,6.30
2023-04-07T11:03:42.831Z,6.86
2023-04-07T11:06:13.684Z,6.85
2023-04-07T11:08:47.412Z,6.76
2023-04-07T11:11:35.661Z,6.60
2023-04-07T11:14:05.109Z,6.40
2023-04-07T11:16:49.321Z,6.28
2023-04-07T11:19:16.561Z,6.81
2023-04-07T11:21:44.630Z,7.41
2023-04-07T11:24:32.404Z,7.49
2023-04-07T11:27:06.583Z,7.34
2023-04-07T11:30:13.519Z,6.95
2023-04-07T11:32:41.068Z,6.54
2023-04-07T11:35:18.445Z,6.45
2023-04-07T11:37:49.554Z,6.44
2023-04-07T11:40:34.382Z,6.93
2023-04-07T11:43:25.101Z,7.47
2023-04-07T11:46:24.349Z,7.42
2023-04-07T11:49:02.194Z,7.04
2023-04-07T11:51:40.969Z,6.83
2023-04-07T11:54:16.496Z,6.76
2023-04-07T11:56:51.628Z,6.63
2023-04-07T11:59:23.272Z,6.28
2023-04-07T12:01:51.765Z,6.80
2023-04-07T12:04:19.777Z,7.41
2023-04-07T12:06:49.004Z,7.44
2023-04-07T12:09:35.903Z,7.30
2023-04-07T12:12:05.872Z,7.22
2023-04-07T12:15:36.284Z,6.97
2023-04-07T12:18:12.169Z,6.79
2023-04-07T12:20:47.445Z,6.80
2023-04-07T12:23:44.782Z,7.41
2023-04-07T12:26:12.341Z,7.94
2023-04-07T12:28:44.207Z,7.71
2023-04-07T12:31:36.978Z,7.59
2023-04-07T12:34:59.481Z,7.19
2023-04-07T12:37:27.518Z,6.81
2023-04-07T12:40:02.112Z,6.74
2023-04-07T12:42:29.952Z,6.72
2023-04-07T12:45:08.373Z,6.62
2023-04-07T12:48:03.455Z,7.21
2023-04-07T12:51:01.442Z,7.66
2023-04-07T12:53:44.865Z,7.81
2023-04-07T12:56:43.960Z,7.54
2023-04-07T12:59:28.424Z,7.31
2023-04-07T13:01:55.913Z,7.06
2023-04-07T13:04:37.057Z,7.04
2023-04-07T13:07:04.317Z,6.95
2023-04-07T13:09:31.715Z,6.92
2023-04-07T13:11:59.193Z,7.68
2023-04-07T13:14:29.685Z,8.52
2023-04-07T13:17:25.003Z,8.73
2023-04-07T13:19:52.658Z,8.52
2023-04-07T13:22:24.503Z,8.20
2023-04-07T13:24:52.129Z,7.78
2023-04-07T13:27:30.687Z,7.54
2023-04-07T13:30:30.607Z,7.45
2023-04-07T13:33:37.776Z,7.48
2023-04-07T13:36:17.874Z,7.52
2023-04-07T13:38:50.241Z,7.39
2023-04-07T13:41:27.646Z,7.46
2023-04-07T13:44:21.267Z,7.58
2023-04-07T13:46:58.180Z,7.75
2023-04-07T13:49:34.387Z,7.64
2023-04-07T13:52:11.977Z,7.47
2023-04-07T13:55:10.695Z,7.37
2023-04-07T13:57:38.202Z,7.31
2023-04-07T14:00:10.017Z,7.31
2023-04-07T14:02:38.740Z,7.31
2023-04-07T14:05:38.436Z,7.40
2023-04-07T14:08:11.448Z,7.88
2023-04-07T14:10:45.535Z,8.59
2023-04-07T14:13:17.732Z,8.74
2023-04-07T14:16:28.635Z,8.29
2023-04-07T14:19:24.138Z,8.01
2023-04-07T14:21:51.466Z,7.82
2023-04-07T14:24:40.032Z,7.52
2023-04-07T14:27:21.078Z,7.11
2023-04-07T14:29:59.579Z,7.13
2023-04-07T14:32:30.049Z,7.10
2023-04-07T14:34:59.816Z,7.02
2023-04-07T14:38:01.106Z,6.97
2023-04-07T14:40:28.457Z,6.86
2023-04-07T14:43:20.812Z,7.30
2023-04-07T14:46:12.449Z,7.93
2023-04-07T14:48:54.494Z,7.79
2023-04-07T14:51:56.571Z,7.74
2023-04-07T14:54:33.327Z,7.45
2023-04-07T14:57:22.454Z,7.26
2023-04-07T15:00:10.692Z,6.97
2023-04-07T15:02:45.666Z,6.82
2023-04-07T15:05:16.377Z,6.65
2023-04-07T15:08:21.835Z,6.61
2023-04-07T15:11:04.319Z,6.63
2023-04-07T15:13:34.902Z,6.69
2023-04-07T15:16:47.275Z,7.61
2023-04-07T15:19:17.256Z,8.41
2023-04-07T15:21:48.389Z,8.37
2023-04-07T15:26:44.454Z,7.74
2023-04-07T15:29:34.079Z,7.70
2023-04-07T15:32:21.516Z,7.47
2023-04-07T15:34:51.989Z,7.34
2023-04-07T15:38:01.872Z,7.20
2023-04-07T15:40:29.380Z,7.04
2023-04-07T15:43:12.327Z,6.92
2023-04-07T15:45:43.569Z,7.53
2023-04-07T15:48:13.725Z,8.17
2023-04-07T15:50:41.154Z,8.27
2023-04-07T15:53:08.405Z,8.11
2023-04-07T15:55:57.019Z,7.88
2023-04-07T15:58:53.326Z,7.65
2023-04-07T16:01:20.494Z,7.49
2023-04-07T16:03:48.785Z,7.36
2023-04-07T16:06:39.807Z,7.20
2023-04-07T16:09:37.279Z,7.06
2023-04-07T16:12:09.451Z,6.98
2023-04-07T16:14:36.576Z,7.59
2023-04-07T16:17:17.251Z,8.33
2023-04-07T16:19:53.328Z,8.44
2023-04-07T16:22:54.812Z,8.24
2023-04-07T16:25:55.529Z,7.92
2023-04-07T16:28:42.028Z,7.67
2023-04-07T16:31:12.390Z,7.46
2023-04-07T16:33:45.694Z,7.25
2023-04-07T16:37:05.325Z,7.10
2023-04-07T16:39:32.954Z,6.96
2023-04-07T16:42:12.177Z,6.84
2023-04-07T16:44:40.110Z,7.44
2023-04-07T16:47:11.191Z,8.03
2023-04-07T16:49:41.078Z,8.13
2023-04-07T16:52:10.136Z,8.00
2023-04-07T16:54:47.732Z,7.76
2023-04-07T16:57:15.033Z,7.48
2023-04-07T16:59:44.136Z,7.22
2023-04-07T17:02:13.235Z,6.95
2023-04-07T17:04:42.636Z,6.73
2023-04-07T17:07:12.826Z,6.52
2023-04-07T17:10:05.083Z,6.95
2023-04-07T17:12:35.808Z,7.56
2023-04-07T17:15:21.615Z,7.56
2023-04-07T17:17:59.799Z,7.34
2023-04-07T17:20:32.328Z,7.05
2023-04-07T17:23:20.480Z,6.81
2023-04-07T17:26:24.922Z,6.64
2023-04-07T17:29:48.996Z,6.52
2023-04-07T17:32:20.926Z,6.48
2023-04-07T17:34:57.632Z,7.39
2023-04-07T17:37:26.504Z,8.17
2023-04-07T17:39:54.223Z,8.29
2023-04-07T17:42:42.962Z,8.10
2023-04-07T17:45:10.886Z,7.79
2023-04-07T17:47:41.350Z,7.45
2023-04-07T17:50:13.305Z,7.20
2023-04-07T17:52:50.165Z,6.98
2023-04-07T17:56:00.701Z,6.78
2023-04-07T17:58:46.624Z,7.55
2023-04-07T18:01:18.850Z,8.13
2023-04-07T18:04:13.211Z,8.16
2023-04-07T18:06:42.935Z,7.89
2023-04-07T18:09:18.303Z,7.52
2023-04-07T18:11:56.629Z,7.29
2023-04-07T18:14:23.751Z,7.07
2023-04-07T18:17:11.430Z,6.91
2023-04-07T18:19:42.394Z,7.52
2023-04-07T18:22:26.858Z,8.04
2023-04-07T18:25:10.662Z,8.03
2023-04-07T18:28:10.320Z,7.85
2023-04-07T18:30:37.565Z,7.63
2023-04-07T18:33:08.098Z,7.41
2023-04-07T18:35:35.308Z,7.20
2023-04-07T18:38:22.406Z,6.95
2023-04-07T18:40:52.141Z,7.53
2023-04-07T18:43:26.851Z,8.17
2023-04-07T18:46:14.219Z,8.25
2023-04-07T18:49:10.783Z,8.00
2023-04-07T18:51:38.225Z,7.66
2023-04-07T18:54:24.306Z,7.38
2023-04-07T18:56:51.735Z,7.15
2023-04-07T18:59:27.631Z,6.96
2023-04-07T19:02:55.588Z,6.81
2023-04-07T19:05:25.595Z,7.74
2023-04-07T19:08:21.956Z,8.37
2023-04-07T19:11:04.391Z,8.37
2023-04-07T19:13:35.292Z,8.16
2023-04-07T19:16:08.017Z,7.94
2023-04-07T19:18:38.479Z,7.65
2023-04-07T19:21:08.694Z,7.38
2023-04-07T19:23:37.612Z,7.14
2023-04-07T19:26:14.949Z,6.93
2023-04-07T19:28:49.214Z,6.72
2023-04-07T19:31:24.128Z,7.27
2023-04-07T19:34:23.376Z,7.86
2023-04-07T19:36:53.442Z,7.86
2023-04-07T19:39:33.026Z,7.64
2023-04-07T19:42:12.782Z,7.37
2023-04-07T19:45:10.509Z,7.05
2023-04-07T19:48:42.590Z,6.80
2023-04-07T19:51:30.658Z,6.56
2023-04-07T19:54:27.637Z,6.37
2023-04-07T19:57:05.220Z,7.18
2023-04-07T20:00:23.242Z,7.77
2023-04-07T20:03:10.225Z,7.76
2023-04-07T20:06:31.927Z,7.49
2023-04-07T20:10:42.150Z,7.15
2023-04-07T20:14:13.288Z,6.85
2023-04-07T20:17:20.055Z,6.58
2023-04-07T20:20:15.676Z,6.41
2023-04-07T20:22:52.259Z,7.27
2023-04-07T20:25:19.841Z,8.01
2023-04-07T20:28:09.807Z,8.12
2023-04-07T20:31:08.415Z,7.88
2023-04-07T20:34:16.352Z,7.53
2023-04-07T20:37:12.485Z,7.12
2023-04-07T20:40:40.285Z,6.84
2023-04-07T20:44:33.472Z,6.54
2023-04-07T20:47:23.759Z,6.45
2023-04-07T20:50:19.393Z,7.60
2023-04-07T20:53:00.437Z,8.09
2023-04-07T20:56:17.133Z,7.92
2023-04-07T20:59:41.816Z,7.58
2023-04-07T21:03:42.324Z,7.21
2023-04-07T21:06:45.882Z,6.89
2023-04-07T21:10:46.734Z,6.64
2023-04-07T21:13:48.016Z,7.72
2023-04-07T21:16:48.394Z,7.98
2023-04-07T21:20:56.556Z,7.68
2023-04-07T21:24:04.466Z,7.32
2023-04-07T21:27:34.782Z,7.06
2023-04-07T21:31:21.031Z,6.81
2023-04-07T21:35:18.135Z,6.78
2023-04-07T21:38:39.911Z,8.04
2023-04-07T21:41:57.612Z,8.13
2023-04-07T21:45:45.722Z,7.81
2023-04-07T21:49:26.409Z,7.49
2023-04-07T21:52:29.301Z,7.15
2023-04-07T21:55:39.939Z,6.95
2023-04-07T21:59:10.646Z,7.66
2023-04-07T22:02:51.621Z,8.17
2023-04-07T22:06:59.899Z,7.92
2023-04-07T22:11:12.038Z,7.52
2023-04-07T22:15:12.889Z,7.15
2023-04-07T22:19:03.955Z,7.02
2023-04-07T22:23:15.305Z,8.21
2023-04-07T22:26:59.448Z,8.23
2023-04-07T22:31:02.405Z,7.81
2023-04-07T22:35:10.498Z,7.44
2023-04-07T22:39:09.661Z,7.34
2023-04-07T22:43:19.845Z,8.56
2023-04-07T22:47:27.918Z,8.44
2023-04-07T22:51:35.596Z,7.97
2023-04-07T22:54:57.814Z,7.57
2023-04-07T22:59:06.141Z,7.15
2023-04-07T23:02:54.191Z,7.08
2023-04-07T23:07:02.447Z,8.22
2023-04-07T23:11:10.519Z,8.24
2023-04-07T23:15:18.728Z,7.77
2023-04-07T23:19:17.295Z,7.36
2023-04-07T23:23:25.437Z,7.24
2023-04-07T23:27:10.693Z,8.42
2023-04-07T23:30:37.512Z,8.46
2023-04-07T23:34:34.564Z,8.05
2023-04-07T23:38:33.692Z,7.63
2023-04-07T23:42:41.783Z,7.31
2023-04-07T23:46:39.627Z,7.23
2023-04-07T23:50:48.794Z,8.49
2023-04-07T23:54:56.948Z,8.37
2023-04-07T23:58:52.282Z,7.86
